Time;durP1;ratioP1;P1;durP2;ratioP2;P2;SDS_P1;SDS_P2;PMS_P1;PMS_P2;Temp;Humidity;BMP_temperature;BMP_pressure;BME280_temperature;BME280_humidity;BME280_pressure;Samples;Min_cycle;Max_cycle;Signal;HPM_P1;HPM_P2
2021/12/04 00:01:26;;;;;;;;;;;19.70;61.00;;;23.70;35.38;93658.69;6114624;19;19982;-78
2021/12/04 00:03:27;;;;;;;;;;;19.70;60.90;;;23.68;35.76;93655.53;6112829;19;19985;-80
2021/12/04 00:05:28;;;;;;;;;;;19.70;60.90;;;23.66;35.43;93636.88;6115955;19;19954;-78
2021/12/04 00:07:31;;;;;;;;;;;19.70;60.90;;;23.65;35.83;93639.97;6112683;19;19953;-79
2021/12/04 00:09:32;;;;;;;;;;;19.70;61.00;;;23.64;35.48;93643.81;6109026;19;19961;-79
2021/12/04 00:11:35;;;;;;;;;;;19.70;61.00;;;23.62;35.41;93632.53;6108552;19;19958;-79
2021/12/04 00:13:35;;;;;;;;;;;19.60;60.80;;;23.61;35.90;93622.78;6108501;19;19976;-80
2021/12/04 00:15:36;;;;;;;;;;;19.60;60.90;;;23.60;35.51;93615.75;6115230;19;20320;-78
2021/12/04 00:17:37;;;;;;;;;;;19.60;61.00;;;23.59;35.50;93609.53;6114692;19;19963;-78
2021/12/04 00:19:38;;;;;;;;;;;19.60;61.00;;;23.58;35.56;93602.53;6111863;19;19982;-81
2021/12/04 00:21:39;;;;;;;;;;;19.60;61.00;;;23.58;35.75;93593.59;6108218;19;20446;-79
2021/12/04 00:23:39;;;;;;;;;;;19.60;61.10;;;23.58;35.71;93578.03;6099631;19;19982;-76
2021/12/04 00:25:40;;;;;;;;;;;19.60;61.10;;;23.57;35.96;93578.41;6103928;19;19990;-77
2021/12/04 00:27:41;;;;;;;;;;;19.60;61.10;;;23.57;35.62;93581.13;6102589;19;20319;-79
2021/12/04 00:29:44;;;;;;;;;;;19.60;61.20;;;23.58;35.84;93579.97;6105123;19;20021;-79
2021/12/04 00:31:48;;;;;;;;;;;19.60;61.20;;;23.58;35.75;93574.53;6109016;19;20093;-76
2021/12/04 00:33:50;;;;;;;;;;;19.50;61.10;;;23.58;35.42;93575.31;6106167;19;21144;-76
2021/12/04 00:36:39;;;;;;;;;;;19.60;61.20;;;23.58;35.79;93569.88;6109233;19;19954;-79
2021/12/04 00:49:48;;;;;;;;;;;19.50;61.10;;;23.55;35.68;93545.31;6099235;19;19976;-79
2021/12/04 00:51:53;;;;;;;;;;;19.50;61.10;;;23.56;35.74;93545.00;6100090;19;20572;-77
2021/12/04 00:53:54;;;;;;;;;;;19.50;61.10;;;23.55;35.80;93534.44;6093741;19;19975;-80
2021/12/04 00:55:55;;;;;;;;;;;19.50;61.20;;;23.56;35.85;93536.03;6091066;19;21014;-78
2021/12/04 00:57:56;;;;;;;;;;;19.50;61.10;;;23.55;35.83;93539.88;6097314;19;19963;-79
2021/12/04 00:59:56;;;;;;;;;;;19.50;61.20;;;23.55;35.95;93537.16;6090180;19;19964;-81
2021/12/04 01:01:57;;;;;;;;;;;19.50;61.20;;;23.54;35.78;93532.88;6095286;19;20579;-80
2021/12/04 01:03:58;;;;;;;;;;;19.50;61.20;;;23.54;35.58;93543.75;6088747;19;19991;-78
2021/12/04 01:05:58;;;;;;;;;;;19.50;61.30;;;23.54;35.82;93536.38;6088544;19;20049;-79
2021/12/04 01:07:59;;;;;;;;;;;19.50;61.30;;;23.53;35.49;93545.69;6085169;19;20405;-80
2021/12/04 01:10:00;;;;;;;;;;;19.40;61.20;;;23.54;35.66;93543.75;6085359;19;21159;-78
2021/12/04 01:12:01;;;;;;;;;;;19.50;61.30;;;23.53;35.86;93537.53;6102598;19;19967;-81
2021/12/04 01:14:02;;;;;;;;;;;19.40;61.20;;;23.51;35.48;93528.19;6099924;19;19978;-81
2021/12/04 01:16:03;;;;;;;;;;;19.40;61.20;;;23.50;35.91;93516.53;6103146;19;20476;-81
2021/12/04 01:18:04;;;;;;;;;;;19.40;61.30;;;23.49;35.93;93525.06;6100829;19;20017;-78
2021/12/04 01:20:05;;;;;;;;;;;19.40;61.20;;;23.49;35.61;93531.28;6098511;19;20302;-80
2021/12/04 01:22:05;;;;;;;;;;;19.40;61.30;;;23.48;35.54;93520.75;6100713;19;19960;-79
2021/12/04 01:24:06;;;;;;;;;;;19.40;61.30;;;23.47;35.71;93524.63;6101379;19;20411;-80
2021/12/04 01:26:07;;;;;;;;;;;19.40;61.30;;;23.47;35.51;93511.03;6099667;19;19992;-78
2021/12/04 01:28:08;;;;;;;;;;;19.40;61.30;;;23.47;35.59;93530.06;6093835;19;20495;-78
2021/12/04 01:30:09;;;;;;;;;;;19.40;61.30;;;23.45;35.61;93523.06;6093696;19;19962;-81
2021/12/04 01:32:09;;;;;;;;;;;19.40;61.30;;;23.46;35.50;93512.97;6103231;19;19953;-77
2021/12/04 01:34:11;;;;;;;;;;;19.40;61.30;;;23.47;35.82;93516.47;6099693;19;20484;-78
2021/12/04 01:36:12;;;;;;;;;;;19.40;61.30;;;23.44;35.95;93513.34;6097268;19;20583;-75
2021/12/04 01:38:12;;;;;;;;;;;19.40;61.30;;;23.45;35.52;93505.97;6090865;19;19964;-79
2021/12/04 01:40:13;;;;;;;;;;;19.40;61.30;;;23.45;36.02;93489.66;6093114;19;19941;-78
2021/12/04 01:42:18;;;;;;;;;;;19.40;61.30;;;23.45;35.83;93490.44;6094490;19;19969;-76
2021/12/04 01:44:19;;;;;;;;;;;19.40;61.30;;;23.45;35.79;93487.72;6093022;19;19998;-79
2021/12/04 01:46:20;;;;;;;;;;;19.40;61.30;;;23.45;35.91;93490.44;6097123;19;19963;-78
2021/12/04 01:48:22;;;;;;;;;;;19.40;61.40;;;23.46;35.41;93485.78;6090894;19;19951;-80
2021/12/04 01:50:23;;;;;;;;;;;19.40;61.30;;;23.45;35.65;93493.16;6084599;19;20022;-80
2021/12/04 01:52:23;;;;;;;;;;;19.40;61.30;;;23.47;36.00;93487.34;6092280;19;19962;-79
2021/12/04 01:54:24;;;;;;;;;;;19.40;61.40;;;23.47;35.88;93473.75;6087863;19;20619;-78
2021/12/04 01:56:31;;;;;;;;;;;19.40;61.40;;;23.47;35.61;93472.97;6101358;19;19964;-77
2021/12/04 01:58:32;;;;;;;;;;;19.40;61.30;;;23.47;35.85;93476.47;6097116;19;21446;-80
2021/12/04 02:00:36;;;;;;;;;;;19.40;61.40;;;23.46;35.90;93469.47;6096944;19;19965;-79
2021/12/04 02:02:38;;;;;;;;;;;19.40;61.30;;;23.46;35.52;93464.03;6100912;19;21046;-76
2021/12/04 02:04:39;;;;;;;;;;;19.40;61.30;;;23.47;35.51;93462.09;6100962;19;20119;-78
2021/12/04 02:06:40;;;;;;;;;;;19.40;61.40;;;23.47;35.94;93457.44;6086698;19;20430;-79
2021/12/04 02:08:42;;;;;;;;;;;19.40;61.30;;;23.48;35.41;93450.03;6094043;19;19962;-78
2021/12/04 02:10:45;;;;;;;;;;;19.40;61.30;;;23.46;35.75;93431.38;6097513;19;19948;-78
2021/12/04 02:12:48;;;;;;;;;;;19.40;61.30;;;23.47;35.84;93426.72;6084615;19;19965;-79
2021/12/04 02:14:48;;;;;;;;;;;19.40;61.30;;;23.46;35.93;93428.66;6089094;19;19946;-77
2021/12/04 02:16:50;;;;;;;;;;;19.40;61.40;;;23.45;35.90;93437.97;6083566;19;19962;-78
2021/12/04 02:18:51;;;;;;;;;;;19.40;61.50;;;23.45;35.60;93440.69;6087206;19;19982;-79
2021/12/04 02:20:55;;;;;;;;;;;19.40;61.40;;;23.45;35.93;93454.28;6088613;19;20361;-81
2021/12/04 02:22:56;;;;;;;;;;;19.40;61.40;;;23.44;35.83;93442.63;6086780;19;19999;-79
2021/12/04 02:24:57;;;;;;;;;;;19.30;61.30;;;23.45;35.89;93444.19;6086573;19;21866;-80
2021/12/04 02:26:57;;;;;;;;;;;19.30;61.20;;;23.45;35.82;93449.63;6091610;19;19961;-79
2021/12/04 02:28:58;;;;;;;;;;;19.40;61.30;;;23.44;35.41;93458.94;6096336;19;19954;-81
2021/12/04 02:30:59;;;;;;;;;;;19.40;61.30;;;23.45;35.83;93457.00;6094916;19;20395;-78
2021/12/04 02:33:00;;;;;;;;;;;19.40;61.40;;;23.45;35.55;93451.56;6097568;19;19984;-80
2021/12/04 02:35:01;;;;;;;;;;;19.40;61.40;;;23.45;35.57;93443.41;6097169;19;19966;-78
2021/12/04 02:37:01;;;;;;;;;;;19.30;61.30;;;23.45;35.67;93438.75;6097175;19;19964;-81
2021/12/04 02:39:02;;;;;;;;;;;19.30;61.30;;;23.45;35.64;93433.31;6093401;19;19970;-77
2021/12/04 02:41:03;;;;;;;;;;;19.40;61.30;;;23.44;35.56;93429.03;6088326;19;19945;-79
2021/12/04 02:43:04;;;;;;;;;;;19.40;61.30;;;23.45;35.91;93419.72;6088245;19;19959;-80
2021/12/04 02:45:09;;;;;;;;;;;19.40;61.20;;;23.45;35.86;93408.84;6086052;19;20306;-78
2021/12/04 02:47:10;;;;;;;;;;;19.40;61.20;;;23.47;35.57;93416.63;6089215;19;21244;-79
2021/12/04 02:49:13;;;;;;;;;;;19.40;61.30;;;23.47;35.68;93426.72;6086891;19;19961;-77
2021/12/04 02:51:18;;;;;;;;;;;19.30;61.10;;;23.47;35.48;93415.84;6094751;19;20364;-77
2021/12/04 02:53:19;;;;;;;;;;;19.40;61.30;;;23.47;35.83;93415.84;6099873;19;20019;-77
2021/12/04 02:55:20;;;;;;;;;;;19.40;61.20;;;23.45;35.69;93414.28;6094790;19;19964;-77
2021/12/04 02:57:21;;;;;;;;;;;19.40;61.20;;;23.46;35.59;93425.94;6091199;19;20713;-77
2021/12/04 02:59:21;;;;;;;;;;;19.30;61.10;;;23.46;35.41;93442.25;6094366;19;21221;-75
2021/12/04 03:01:22;;;;;;;;;;;19.30;61.10;;;23.45;35.30;93452.34;6095119;19;20043;-78
2021/12/04 03:03:23;;;;;;;;;;;19.30;61.10;;;23.45;35.42;93476.06;6087709;19;19982;-79
2021/12/04 03:05:26;;;;;;;;;;;19.30;61.10;;;23.45;35.41;93467.91;6081149;19;20390;-79
2021/12/04 03:07:26;;;;;;;;;;;19.30;61.00;;;23.43;35.53;93460.09;6081496;19;20004;-81
2021/12/04 03:09:27;;;;;;;;;;;19.30;61.10;;;23.44;35.27;93455.44;6092631;19;19951;-78
2021/12/04 03:11:28;;;;;;;;;;;19.30;61.10;;;23.42;35.27;93444.94;6092703;19;19965;-80
2021/12/04 03:13:28;;;;;;;;;;;19.30;61.00;;;23.42;35.75;93447.66;6085062;19;19987;-81
2021/12/04 03:15:29;;;;;;;;;;;19.30;61.00;;;23.41;35.71;93423.56;6087644;19;19970;-79
2021/12/04 03:17:30;;;;;;;;;;;19.30;61.00;;;23.41;35.33;93424.34;6094728;19;21351;-79
2021/12/04 03:19:34;;;;;;;;;;;19.30;61.00;;;23.40;35.70;93444.53;6098259;19;20386;-78
2021/12/04 03:21:37;;;;;;;;;;;19.30;61.00;;;23.40;35.68;93419.28;6089604;19;19957;-80
2021/12/04 03:23:51;;;;;;;;;;;19.30;60.90;;;23.41;35.54;93401.81;6077498;19;19972;-81
2021/12/04 03:25:55;;;;;;;;;;;19.30;61.00;;;23.40;35.55;93387.41;6085661;19;20434;-79
2021/12/04 03:27:55;;;;;;;;;;;19.30;60.90;;;23.40;35.68;93373.81;6087125;19;19960;-79
2021/12/04 03:29:59;;;;;;;;;;;19.30;60.90;;;23.40;35.68;93357.50;6093948;19;19987;-80
2021/12/04 03:41:37;;;;;;;;;;;19.30;61.00;;;23.41;35.68;93356.34;6084023;19;20695;-79
2021/12/04 03:43:37;;;;;;;;;;;19.30;60.90;;;23.43;35.71;93364.91;6081659;19;19974;-79
2021/12/04 03:45:41;;;;;;;;;;;19.30;60.90;;;23.44;35.30;93368.41;6060266;19;19962;-77
2021/12/04 03:47:46;;;;;;;;;;;19.40;61.10;;;23.45;35.46;93364.53;6054364;19;20495;-77
2021/12/04 03:49:47;;;;;;;;;;;19.30;61.00;;;23.45;35.19;93354.44;6068908;19;19970;-76
2021/12/04 03:51:48;;;;;;;;;;;19.30;60.90;;;23.47;35.30;93361.44;6061578;19;19955;-77
2021/12/04 03:53:49;;;;;;;;;;;19.30;60.90;;;23.47;35.19;93358.72;6060612;19;19977;-77
2021/12/04 03:55:50;;;;;;;;;;;19.30;60.90;;;23.48;35.23;93352.13;6064290;19;20353;-76
2021/12/04 03:57:52;;;;;;;;;;;19.20;60.80;;;23.48;35.36;93346.69;6064191;19;20316;-78
2021/12/04 03:59:52;;;;;;;;;;;19.30;60.90;;;23.48;35.49;93347.47;6064839;19;20392;-78
2021/12/04 04:01:53;;;;;;;;;;;19.30;60.90;;;23.46;35.65;93344.34;6065219;19;20036;-77
2021/12/04 04:03:53;;;;;;;;;;;19.30;60.80;;;23.47;35.35;93339.69;6064442;19;19991;-78
2021/12/04 04:05:55;;;;;;;;;;;19.30;60.80;;;23.48;35.20;93324.94;6076396;19;20604;-76
2021/12/04 04:07:56;;;;;;;;;;;19.30;60.80;;;23.48;35.16;93357.56;6062451;19;20080;-76
2021/12/04 04:09:56;;;;;;;;;;;19.30;60.80;;;23.46;35.47;93344.34;6068509;19;20557;-77
2021/12/04 04:11:57;;;;;;;;;;;19.30;60.80;;;23.46;35.46;93328.03;6081332;19;19983;-77
2021/12/04 04:13:58;;;;;;;;;;;19.30;60.80;;;23.44;35.32;93324.91;6065380;19;19982;-79
2021/12/04 04:16:00;;;;;;;;;;;19.30;60.70;;;23.44;35.31;93325.69;6068401;19;20673;-78
2021/12/04 04:18:01;;;;;;;;;;;19.20;60.60;;;23.43;35.55;93332.28;6071202;19;19975;-78
2021/12/04 04:20:03;;;;;;;;;;;19.30;60.80;;;23.42;35.34;93319.84;6067929;19;19958;-77
2021/12/04 04:22:04;;;;;;;;;;;19.30;60.80;;;23.42;35.32;93319.84;6065408;19;19976;-77
2021/12/04 04:24:06;;;;;;;;;;;19.30;60.80;;;23.42;35.15;93316.34;6061441;19;20061;-77
2021/12/04 04:26:07;;;;;;;;;;;19.30;60.70;;;23.39;35.12;93312.44;6061607;19;19986;-79
2021/12/04 04:28:08;;;;;;;;;;;19.20;60.60;;;23.39;35.35;93312.44;6067314;19;20379;-78
2021/12/04 04:30:13;;;;;;;;;;;19.20;60.70;;;23.39;35.64;93309.72;6070317;19;19957;-78
2021/12/04 04:32:14;;;;;;;;;;;19.20;60.60;;;23.38;35.13;93305.44;6067923;19;19982;-77
2021/12/04 04:34:29;;;;;;;;;;;19.20;60.70;;;23.38;35.62;93300.00;6060335;19;19958;-78
2021/12/04 05:12:51;;;;;;;;;;;19.30;60.60;;;23.47;34.92;93225.47;6073237;19;20790;-74
2021/12/04 05:15:02;;;;;;;;;;;19.30;60.60;;;23.47;35.17;93214.59;6072116;19;19953;-76
2021/12/04 05:17:15;;;;;;;;;;;19.30;60.50;;;23.47;35.58;93211.88;6071731;19;19962;-76
2021/12/04 05:19:27;;;;;;;;;;;19.30;60.50;;;23.47;35.29;93214.59;6075802;19;19970;-76
2021/12/04 05:21:27;;;;;;;;;;;19.30;60.60;;;23.45;35.24;93218.47;6078018;19;20720;-76
2021/12/04 05:23:28;;;;;;;;;;;19.30;60.60;;;23.46;35.40;93219.25;6061905;19;19999;-77
2021/12/04 05:25:30;;;;;;;;;;;19.30;60.60;;;23.47;35.26;93214.59;6068664;19;19986;-76
2021/12/04 05:27:31;;;;;;;;;;;19.30;60.40;;;23.48;35.14;93205.28;6071174;19;19947;-75
2021/12/04 05:29:32;;;;;;;;;;;19.30;60.50;;;23.45;35.27;93207.59;6066582;19;20014;-75
2021/12/04 05:31:33;;;;;;;;;;;19.30;60.50;;;23.46;35.27;93211.09;6066511;19;20041;-75
2021/12/04 05:33:34;;;;;;;;;;;19.30;60.40;;;23.47;35.21;93214.59;6066658;19;20608;-76
2021/12/04 05:35:34;;;;;;;;;;;19.30;60.40;;;23.47;35.44;93201.00;6064954;19;19974;-76
2021/12/04 05:37:35;;;;;;;;;;;19.30;60.40;;;23.46;35.39;93205.66;6057357;19;20133;-76
2021/12/04 05:39:36;;;;;;;;;;;19.30;60.40;;;23.45;35.21;93204.09;6066211;19;20027;-76
2021/12/04 05:41:37;;;;;;;;;;;19.30;60.50;;;23.45;35.25;93204.88;6071569;19;19963;-76
2021/12/04 05:43:37;;;;;;;;;;;19.30;60.40;;;23.47;34.96;93206.44;6057590;19;19983;-77
2021/12/04 05:45:43;;;;;;;;;;;19.30;60.40;;;23.46;35.35;93197.50;6070449;19;19983;-75
2021/12/04 05:48:02;;;;;;;;;;;19.30;60.40;;;23.48;35.17;93194.41;6060574;19;20274;-76
2021/12/04 05:50:20;;;;;;;;;;;19.30;60.40;;;23.46;34.87;93197.50;6061877;19;20072;-76
2021/12/04 05:57:09;;;;;;;;;;;19.30;60.30;;;23.46;35.20;93200.22;6069057;19;19972;-76
2021/12/04 05:59:09;;;;;;;;;;;19.30;60.30;;;23.45;35.03;93194.00;6062179;19;20368;-76
2021/12/04 06:01:10;;;;;;;;;;;19.30;60.30;;;23.46;34.99;93197.50;6063334;19;21407;-76
2021/12/04 06:03:12;;;;;;;;;;;19.30;60.30;;;23.47;35.40;93192.84;6065791;19;19987;-76
2021/12/04 06:05:13;;;;;;;;;;;19.30;60.30;;;23.48;34.84;93194.41;6068622;19;19980;-75
2021/12/04 06:07:14;;;;;;;;;;;19.30;60.30;;;23.45;35.26;93177.66;6066134;19;21853;-76
2021/12/04 06:09:14;;;;;;;;;;;19.30;60.30;;;23.48;34.91;93188.94;6075809;19;19955;-76
2021/12/04 06:11:15;;;;;;;;;;;19.30;60.30;;;23.49;34.82;93182.34;6067144;19;19968;-75
2021/12/04 06:13:16;;;;;;;;;;;19.30;60.20;;;23.48;35.14;93167.19;6069759;19;20019;-75
2021/12/04 06:15:17;;;;;;;;;;;19.30;60.20;;;23.48;35.17;93167.97;6074186;19;21462;-76
2021/12/04 06:17:19;;;;;;;;;;;19.30;60.30;;;23.48;35.18;93170.69;6080651;19;19962;-75
2021/12/04 06:24:01;;;;;;;;;;;19.30;60.20;;;23.48;35.05;93153.59;6067061;19;19979;-77
2021/12/04 06:26:01;;;;;;;;;;;19.30;60.20;;;23.48;34.80;93164.47;6073715;19;19965;-76
2021/12/04 06:28:02;;;;;;;;;;;19.30;60.10;;;23.48;34.80;93156.31;6070031;19;21619;-76
2021/12/04 06:30:04;;;;;;;;;;;19.30;60.20;;;23.48;34.81;93157.09;6072028;19;20044;-76
2021/12/04 06:32:05;;;;;;;;;;;19.30;60.10;;;23.49;34.93;93163.31;6072270;19;19963;-77
2021/12/04 06:34:06;;;;;;;;;;;19.30;60.10;;;23.49;34.96;93164.09;6071028;19;20745;-76
2021/12/04 06:36:08;;;;;;;;;;;19.30;60.10;;;23.49;35.06;93147.00;6074272;19;19984;-77
2021/12/04 06:38:10;;;;;;;;;;;19.30;60.10;;;23.50;35.10;93149.34;6059115;19;19978;-77
2021/12/04 06:40:12;;;;;;;;;;;19.30;60.10;;;23.50;34.75;93148.56;6068953;19;19970;-78
2021/12/04 06:42:12;;;;;;;;;;;19.30;60.10;;;23.51;35.21;93150.91;6071865;19;19959;-76
2021/12/04 06:44:13;;;;;;;;;;;19.30;60.10;;;23.50;34.94;93143.91;6064797;19;20409;-76
2021/12/04 06:46:16;;;;;;;;;;;19.30;60.10;;;23.50;35.03;93143.91;6063373;19;19976;-76
2021/12/04 06:48:22;;;;;;;;;;;19.30;60.10;;;23.51;35.03;93152.84;6066838;19;21505;-75
2021/12/04 06:50:34;;;;;;;;;;;19.30;60.00;;;23.50;35.00;93149.34;6078974;19;19982;-75
2021/12/04 06:52:36;;;;;;;;;;;19.30;60.00;;;23.50;35.21;93146.63;6079183;19;20653;-77
2021/12/04 06:54:40;;;;;;;;;;;19.30;60.10;;;23.51;35.27;93152.84;6063683;19;20006;-76
2021/12/04 06:56:43;;;;;;;;;;;19.30;60.00;;;23.50;34.76;93154.78;6064709;19;19959;-76
2021/12/04 06:58:43;;;;;;;;;;;19.30;60.00;;;23.50;35.18;93137.69;6068455;19;20033;-77
2021/12/04 07:00:45;;;;;;;;;;;19.30;60.70;;;23.51;34.80;93131.09;6066883;19;20773;-75
2021/12/04 07:02:45;;;;;;;;;;;19.30;59.90;;;23.51;35.14;93148.19;6072495;19;20038;-76
2021/12/04 07:04:46;;;;;;;;;;;19.30;59.90;;;23.52;34.70;93132.63;6063696;19;19945;-75
2021/12/04 07:06:48;;;;;;;;;;;19.30;59.90;;;23.52;35.09;93138.84;6068103;19;20009;-76
2021/12/04 07:08:49;;;;;;;;;;;19.30;59.90;;;23.51;35.11;93136.53;6068403;19;19956;-76
2021/12/04 07:10:50;;;;;;;;;;;19.30;59.90;;;23.50;35.11;93135.75;6070956;19;20005;-76
2021/12/04 07:12:51;;;;;;;;;;;19.30;59.90;;;23.50;34.63;93137.69;6065251;19;20464;-75
2021/12/04 07:14:51;;;;;;;;;;;19.30;59.90;;;23.50;35.02;93134.97;6070011;19;20011;-75
2021/12/04 07:16:52;;;;;;;;;;;19.30;60.00;;;23.49;34.82;93134.19;6069299;19;20449;-76
2021/12/04 07:18:53;;;;;;;;;;;19.30;59.90;;;23.48;34.87;93120.97;6073597;19;19987;-76
2021/12/04 07:20:54;;;;;;;;;;;19.30;59.90;;;23.47;35.14;93127.56;6075956;19;19959;-76
2021/12/04 07:22:55;;;;;;;;;;;19.30;59.90;;;23.45;34.84;93120.56;6065872;19;19967;-76
2021/12/04 07:24:56;;;;;;;;;;;19.30;60.00;;;23.47;35.15;93124.84;6063103;19;19957;-76
2021/12/04 07:26:57;;;;;;;;;;;19.30;59.90;;;23.46;35.03;93121.34;6065471;19;20303;-76
2021/12/04 07:28:58;;;;;;;;;;;19.30;60.00;;;23.44;35.11;93127.16;6067546;19;21022;-77
2021/12/04 07:30:58;;;;;;;;;;;19.30;60.10;;;23.44;34.77;93129.88;6065042;19;19978;-76
2021/12/04 07:32:59;;;;;;;;;;;19.30;60.00;;;23.44;34.84;93121.72;6072089;19;19955;-76
2021/12/04 07:35:00;;;;;;;;;;;19.30;60.00;;;23.45;35.05;93117.06;6058318;19;20411;-75
2021/12/04 07:37:02;;;;;;;;;;;19.30;60.00;;;23.44;34.72;93108.13;6049918;19;19955;-77
2021/12/04 07:39:04;;;;;;;;;;;19.30;60.10;;;23.45;34.99;93098.03;6069045;19;19963;-77
2021/12/04 07:41:04;;;;;;;;;;;19.20;60.10;;;23.44;35.29;93085.59;6081954;19;19960;-75
2021/12/04 07:43:05;;;;;;;;;;;19.30;60.20;;;23.44;35.32;93091.03;6067890;19;19967;-75
2021/12/04 07:45:07;;;;;;;;;;;19.30;60.30;;;23.44;34.99;93093.75;6070166;19;20857;-76
2021/12/04 07:47:08;;;;;;;;;;;19.30;60.40;;;23.45;35.42;93093.38;6070795;19;19998;-76
2021/12/04 07:49:09;;;;;;;;;;;19.30;60.40;;;23.45;35.38;93090.66;6069143;19;20499;-76
2021/12/04 07:51:10;;;;;;;;;;;19.30;60.50;;;23.47;35.31;93095.72;6077213;19;20040;-75
2021/12/04 07:53:10;;;;;;;;;;;19.30;60.50;;;23.46;35.17;93088.72;6068174;19;20495;-75
2021/12/04 07:55:11;;;;;;;;;;;19.30;60.50;;;23.48;35.18;93094.53;6075290;19;20007;-76
2021/12/04 07:57:12;;;;;;;;;;;19.30;60.60;;;23.48;34.98;93093.78;6060033;19;19949;-74
2021/12/04 07:59:12;;;;;;;;;;;19.20;60.50;;;23.50;35.38;93102.31;6058041;19;20026;-75
2021/12/04 08:01:13;;;;;;;;;;;19.30;60.60;;;23.51;35.61;93107.38;6063543;19;20416;-76
2021/12/04 08:03:14;;;;;;;;;;;19.30;60.60;;;23.50;35.42;93092.22;6063369;19;19983;-75
2021/12/04 08:05:15;;;;;;;;;;;19.30;60.60;;;23.52;35.27;93111.66;6071116;19;19972;-76
2021/12/04 08:07:16;;;;;;;;;;;19.30;60.70;;;23.53;35.09;93112.44;6080292;19;19993;-75
2021/12/04 08:09:17;;;;;;;;;;;19.30;60.70;;;23.53;35.44;93107.78;6080994;19;20383;-76
2021/12/04 08:11:17;;;;;;;;;;;19.30;60.70;;;23.54;35.08;93111.28;6080420;19;20900;-75
2021/12/04 08:13:18;;;;;;;;;;;19.30;60.70;;;23.55;34.98;93107.41;6078804;19;20502;-75
2021/12/04 08:15:19;;;;;;;;;;;19.30;60.60;;;23.56;35.17;93109.00;6077554;19;19958;-75
2021/12/04 08:17:20;;;;;;;;;;;19.30;60.60;;;23.55;34.90;93104.69;6066654;19;20935;-76
2021/12/04 08:19:21;;;;;;;;;;;19.40;60.70;;;23.55;35.44;93104.69;6067695;19;19967;-75
2021/12/04 08:21:22;;;;;;;;;;;19.40;60.60;;;23.55;35.03;93116.38;6066275;19;19956;-76
2021/12/04 08:23:22;;;;;;;;;;;19.40;60.60;;;23.56;35.32;93114.44;6066296;19;20011;-76
2021/12/04 08:25:23;;;;;;;;;;;19.40;60.70;;;23.56;35.32;93111.72;6074384;19;19972;-76
2021/12/04 08:27:24;;;;;;;;;;;19.40;60.70;;;23.57;35.35;93116.00;6068608;19;19972;-76
2021/12/04 08:29:24;;;;;;;;;;;19.40;60.60;;;23.55;35.18;93105.50;6068017;19;21419;-76
2021/12/04 08:31:25;;;;;;;;;;;19.40;60.60;;;23.56;35.06;93115.22;6074315;19;20241;-77
2021/12/04 08:33:26;;;;;;;;;;;19.40;60.60;;;23.56;35.31;93120.66;6074229;19;20573;-76
2021/12/04 08:35:30;;;;;;;;;;;19.40;60.40;;;23.56;35.09;93109.78;6071376;19;19969;-75
2021/12/04 08:37:31;;;;;;;;;;;19.40;60.40;;;23.56;35.20;93117.16;6068803;19;21338;-75
2021/12/04 08:39:32;;;;;;;;;;;19.30;60.20;;;23.56;35.06;93109.78;6071409;19;19967;-76
2021/12/04 08:41:33;;;;;;;;;;;19.30;60.00;;;23.55;35.07;93126.44;6075326;19;19960;-76
2021/12/04 08:43:34;;;;;;;;;;;19.40;60.10;;;23.56;34.98;93117.16;6080494;19;20005;-75
2021/12/04 08:45:35;;;;;;;;;;;19.40;60.00;;;23.55;34.72;93123.72;6079946;19;19970;-76
2021/12/04 08:47:37;;;;;;;;;;;19.30;59.70;;;23.56;35.02;93119.88;6071168;19;19963;-74
2021/12/04 08:49:38;;;;;;;;;;;19.40;59.70;;;23.55;34.89;93116.38;6075217;19;19956;-76
2021/12/04 08:51:41;;;;;;;;;;;19.40;59.60;;;23.54;34.83;93109.34;6073350;19;20547;-76
2021/12/04 08:53:42;;;;;;;;;;;19.40;59.60;;;23.55;34.49;93118.28;6064701;19;19980;-75
2021/12/04 08:55:43;;;;;;;;;;;19.30;59.40;;;23.55;34.62;93121.00;6058913;19;19973;-75
2021/12/04 08:57:44;;;;;;;;;;;19.40;59.30;;;23.55;34.83;93115.56;6058241;19;19971;-75
2021/12/04 08:59:47;;;;;;;;;;;19.30;59.20;;;23.54;34.32;93117.50;6054056;19;19969;-76
2021/12/04 09:01:48;;;;;;;;;;;19.30;59.20;;;23.55;34.38;93116.38;6040050;19;20333;-76
2021/12/04 09:03:50;;;;;;;;;;;19.40;59.10;;;23.55;34.21;93116.38;6038156;19;20016;-75
2021/12/04 09:05:52;;;;;;;;;;;19.40;59.00;;;23.56;34.38;93103.56;6064253;19;19964;-75
2021/12/04 09:07:53;;;;;;;;;;;19.40;58.90;;;23.56;34.59;93101.59;6054315;19;19967;-75
2021/12/04 09:09:56;;;;;;;;;;;19.40;59.00;;;23.56;34.27;93109.00;6076002;19;19977;-76
2021/12/04 09:12:02;;;;;;;;;;;19.40;59.00;;;23.55;34.46;93108.22;6087220;19;19982;-75
2021/12/04 09:14:03;;;;;;;;;;;19.40;58.90;;;23.55;34.26;93107.41;6069328;19;20778;-76
2021/12/04 09:16:04;;;;;;;;;;;19.40;59.00;;;23.56;34.63;93106.28;6079296;19;20059;-75
2021/12/04 09:18:05;;;;;;;;;;;19.40;58.90;;;23.55;34.27;93104.69;6075190;19;19973;-76
2021/12/04 09:20:07;;;;;;;;;;;19.40;58.90;;;23.56;34.28;93104.34;6071288;19;19961;-77
2021/12/04 09:22:12;;;;;;;;;;;19.40;58.90;;;23.58;34.60;93106.66;6063567;19;19968;-74
2021/12/04 09:24:15;;;;;;;;;;;19.40;58.90;;;23.58;34.27;93101.22;6040795;19;20567;-76
2021/12/04 09:26:32;;;;;;;;;;;19.50;59.00;;;23.58;34.65;93102.00;6057534;19;20339;-76
2021/12/04 09:28:42;;;;;;;;;;;19.40;58.80;;;23.59;34.40;93102.78;6045082;19;19960;-75
2021/12/04 10:05:51;;;;;;;;;;;19.40;59.30;;;23.63;34.62;93060.88;6079287;19;20013;-75
2021/12/04 10:13:10;;;;;;;;;;;19.40;59.20;;;23.65;35.16;93055.81;6052682;19;19969;-75
2021/12/04 10:21:39;;;;;;;;;;;19.40;60.70;;;23.68;35.03;93040.69;6087069;19;19990;-76
2021/12/04 10:33:14;;;;;;;;;;;19.40;60.50;;;23.65;35.29;93028.63;6079655;19;19979;-76
2021/12/04 10:35:20;;;;;;;;;;;19.50;60.50;;;23.66;35.28;93018.53;6079410;19;19975;-75
2021/12/04 10:37:24;;;;;;;;;;;19.40;60.40;;;23.66;34.87;93021.25;6078281;19;20852;-76
2021/12/04 10:39:25;;;;;;;;;;;19.40;60.50;;;23.66;34.94;93013.84;6081308;19;21353;-75
2021/12/04 10:41:30;;;;;;;;;;;19.40;60.40;;;23.66;35.02;93010.34;6074395;19;19971;-76
2021/12/04 10:43:31;;;;;;;;;;;19.40;60.40;;;23.66;34.72;92999.47;6075652;19;20002;-76
2021/12/04 10:45:38;;;;;;;;;;;19.40;60.20;;;23.66;35.20;93004.91;6088967;19;19975;-76
2021/12/04 10:47:50;;;;;;;;;;;19.40;60.20;;;23.65;35.08;92997.91;6073854;19;19983;-76
2021/12/04 10:52:31;;;;;;;;;;;19.40;60.20;;;23.65;35.15;92992.47;6083130;19;20007;-75
2021/12/04 10:54:39;;;;;;;;;;;19.50;60.30;;;23.65;35.00;92992.47;6082363;19;20014;-75
2021/12/04 11:06:03;;;;;;;;;;;19.50;60.20;;;23.65;35.11;92962.56;6087080;19;20595;-78
2021/12/04 11:22:41;;;;;;;;;;;19.50;61.10;;;23.68;35.42;92943.53;6079469;19;19994;-76
2021/12/04 11:40:57;;;;;;;1.77;0.70;;;19.50;61.40;;;23.69;35.43;92934.19;6104249;19;20365;-62
2021/12/04 11:43:08;;;;;;;4.93;0.70;;;19.60;61.20;;;23.68;35.54;92931.88;6086963;19;20357;-62
2021/12/04 11:45:20;;;;;;;1.25;0.60;;;19.60;61.00;;;23.69;35.57;92925.25;6087613;19;20696;-63
2021/12/04 11:47:21;;;;;;;0.90;0.60;;;19.60;60.70;;;23.70;35.49;92924.09;6093803;19;20067;-62
2021/12/04 11:49:26;;;;;;;1.40;0.70;;;19.60;60.60;;;23.72;35.43;92921.75;6100990;19;20462;-62
2021/12/04 11:51:27;;;;;;;2.47;0.88;;;19.70;60.50;;;23.73;35.40;92917.88;6082999;19;20363;-62
2021/12/04 11:53:32;;;;;;;0.90;0.68;;;19.70;60.40;;;23.75;35.01;92918.28;6089204;19;20392;-62
2021/12/04 11:55:41;;;;;;;0.40;0.40;;;19.70;60.30;;;23.77;35.34;92915.16;6098168;19;20098;-62
2021/12/04 11:57:42;;;;;;;6.53;1.13;;;19.70;60.20;;;23.81;35.42;92907.78;6096758;19;20602;-62
2021/12/04 11:59:46;;;;;;;11.00;0.93;;;19.80;60.90;;;23.87;35.79;92917.91;6102756;19;20010;-62
2021/12/04 12:01:57;;;;;;;4.88;0.80;;;19.80;61.20;;;23.92;35.89;92914.00;6100033;19;20082;-62
2021/12/04 12:04:08;;;;;;;4.45;0.75;;;19.90;61.70;;;23.98;35.89;92912.47;6099397;19;20351;-63
2021/12/04 12:06:11;;;;;;;3.53;1.05;;;20.00;61.80;;;24.05;36.29;92909.75;6092407;19;20582;-65